createdAt,value
2022-10-25T00:00:24.498Z,18.77
2022-10-25T00:02:50.880Z,21.63
2022-10-25T00:05:17.280Z,13.10
2022-10-25T00:07:43.969Z,11.87
2022-10-25T00:10:10.914Z,16.87
2022-10-25T00:12:44.631Z,18.43
2022-10-25T00:15:14.017Z,15.67
2022-10-25T00:17:41.587Z,12.77
2022-10-25T00:20:08.915Z,14.93
2022-10-25T00:22:35.473Z,12.63
2022-10-25T00:25:01.912Z,16.57
2022-10-25T00:27:28.546Z,17.87
2022-10-25T00:29:55.131Z,12.33
2022-10-25T00:32:21.549Z,16.27
2022-10-25T00:34:48.129Z,17.43
2022-10-25T00:37:14.493Z,15.80
2022-10-25T00:39:41.201Z,14.50
2022-10-25T00:42:09.672Z,17.53
2022-10-25T00:44:36.271Z,19.40
2022-10-25T00:47:11.125Z,19.27
2022-10-25T00:49:37.766Z,20.17
2022-10-25T00:52:06.754Z,14.33
2022-10-25T00:54:37.656Z,14.57
2022-10-25T00:57:10.030Z,21.83
2022-10-25T00:59:36.798Z,19.80
2022-10-25T01:02:03.393Z,15.27
2022-10-25T01:04:31.513Z,17.47
2022-10-25T01:06:58.362Z,18.23
2022-10-25T01:09:30.677Z,18.80
2022-10-25T01:11:57.052Z,19.47
2022-10-25T01:14:23.935Z,17.93
2022-10-25T01:17:08.689Z,14.93
2022-10-25T01:20:12.752Z,18.10
2022-10-25T01:22:46.124Z,17.10
2022-10-25T01:25:50.391Z,15.80
2022-10-25T01:28:16.684Z,15.83
2022-10-25T01:30:59.902Z,18.37
2022-10-25T01:33:47.070Z,18.47
2022-10-25T01:36:29.752Z,22.60
2022-10-25T01:39:02.369Z,19.43
2022-10-25T01:41:49.784Z,17.23
2022-10-25T01:44:50.497Z,19.70
2022-10-25T01:47:20.421Z,17.07
2022-10-25T01:49:49.997Z,14.60
2022-10-25T01:52:23.834Z,18.87
2022-10-25T01:54:51.373Z,16.97
2022-10-25T01:57:39.074Z,15.83
2022-10-25T02:00:20.561Z,17.47
2022-10-25T02:03:11.250Z,18.37
2022-10-25T02:05:55.954Z,18.83
2022-10-25T02:08:40.833Z,17.27
2022-10-25T02:11:22.364Z,16.53
2022-10-25T02:14:07.551Z,15.63
2022-10-25T02:16:41.011Z,12.13
2022-10-25T02:19:09.818Z,21.47
2022-10-25T02:21:37.058Z,15.67
2022-10-25T02:24:08.217Z,20.17
2022-10-25T02:26:35.346Z,19.43
2022-10-25T02:29:03.901Z,19.50
2022-10-25T02:31:33.043Z,21.67
2022-10-25T02:33:59.556Z,14.20
2022-10-25T02:36:25.919Z,18.37
2022-10-25T02:38:53.038Z,20.97
2022-10-25T02:41:20.330Z,17.00
2022-10-25T02:43:46.832Z,15.73
2022-10-25T02:46:17.426Z,22.23
2022-10-25T02:48:44.529Z,18.07
2022-10-25T02:51:11.525Z,19.00
2022-10-25T02:53:38.619Z,16.10
2022-10-25T02:56:13.277Z,22.20
2022-10-25T02:58:41.185Z,15.73
2022-10-25T03:01:08.076Z,22.57
2022-10-25T03:03:34.826Z,17.30
2022-10-25T03:06:01.383Z,18.50
2022-10-25T03:10:59.606Z,19.27
2022-10-25T03:13:26.173Z,19.70
2022-10-25T03:15:52.741Z,25.77
2022-10-25T03:18:19.194Z,19.03
2022-10-25T03:20:46.733Z,19.67
2022-10-25T03:23:13.510Z,16.90
2022-10-25T03:25:40.442Z,25.97
2022-10-25T03:28:07.413Z,23.50
2022-10-25T03:30:34.385Z,22.43
2022-10-25T03:33:01.123Z,20.00
2022-10-25T03:35:27.584Z,21.83
2022-10-25T03:37:54.083Z,18.60
2022-10-25T03:40:20.952Z,23.17
2022-10-25T03:42:47.364Z,19.97
2022-10-25T03:45:13.787Z,21.20
2022-10-25T03:47:40.536Z,20.80
2022-10-25T03:50:08.075Z,24.23
2022-10-25T03:52:34.944Z,22.53
2022-10-25T03:55:01.790Z,20.57
2022-10-25T03:57:28.346Z,22.97
2022-10-25T03:59:54.755Z,15.33
2022-10-25T04:02:21.164Z,19.43
2022-10-25T04:04:47.560Z,14.60
2022-10-25T04:07:13.950Z,23.03
2022-10-25T04:09:40.472Z,19.20
2022-10-25T04:12:06.873Z,25.77
2022-10-25T04:14:33.255Z,13.97
2022-10-25T04:16:59.787Z,20.93
2022-10-25T04:19:26.190Z,19.57
2022-10-25T04:21:52.581Z,21.10
2022-10-25T04:24:19.053Z,21.13
2022-10-25T04:26:45.459Z,18.07
2022-10-25T04:29:12.276Z,17.37
2022-10-25T04:31:38.665Z,18.13
2022-10-25T04:34:05.104Z,14.97
2022-10-25T04:36:31.877Z,15.60
2022-10-25T04:38:58.438Z,15.87
2022-10-25T04:41:25.007Z,18.17
2022-10-25T04:43:52.197Z,19.40
2022-10-25T04:46:19.814Z,19.90
2022-10-25T04:48:46.234Z,16.23
2022-10-25T04:51:13.188Z,15.30
2022-10-25T04:53:39.696Z,16.87
2022-10-25T04:56:11.963Z,25.37
2022-10-25T04:58:38.862Z,22.83
2022-10-25T05:01:09.875Z,22.20
2022-10-25T05:03:36.463Z,17.43
2022-10-25T05:06:14.055Z,15.60
2022-10-25T05:08:42.143Z,24.63
2022-10-25T05:11:09.810Z,18.50
2022-10-25T05:13:37.086Z,15.63
2022-10-25T05:16:04.172Z,22.20
2022-10-25T05:18:31.416Z,16.13
2022-10-25T05:21:01.347Z,22.67
2022-10-25T05:23:28.562Z,19.30
2022-10-25T05:26:09.988Z,19.97
2022-10-25T05:28:38.066Z,15.00
2022-10-25T05:33:39.996Z,18.73
2022-10-25T05:36:06.663Z,16.20
2022-10-25T05:38:36.939Z,22.73
2022-10-25T05:41:04.915Z,23.93
2022-10-25T05:43:31.482Z,15.60
2022-10-25T05:46:03.929Z,16.93
2022-10-25T05:48:30.363Z,17.03
2022-10-25T05:51:28.834Z,14.87
2022-10-25T05:54:22.534Z,22.53
2022-10-25T06:00:05.925Z,22.57
2022-10-25T06:02:45.826Z,27.40
2022-10-25T06:05:12.438Z,20.77
2022-10-25T06:07:38.870Z,19.23
2022-10-25T06:10:10.298Z,17.47
2022-10-25T06:12:37.091Z,31.53
2022-10-25T06:15:03.874Z,18.03
2022-10-25T06:17:30.274Z,20.57
2022-10-25T06:19:56.867Z,22.30
2022-10-25T06:22:23.401Z,25.23
2022-10-25T06:24:49.809Z,17.23
2022-10-25T06:27:16.315Z,24.90
2022-10-25T06:29:42.708Z,20.30
2022-10-25T06:32:09.114Z,22.10
2022-10-25T06:34:35.691Z,22.13
2022-10-25T06:37:02.083Z,24.90
2022-10-25T06:39:28.507Z,21.83
2022-10-25T06:41:54.877Z,20.37
2022-10-25T06:44:21.292Z,29.03
2022-10-25T06:49:34.032Z,19.87
2022-10-25T06:52:00.397Z,21.60
2022-10-25T06:54:26.999Z,21.73
2022-10-25T06:56:53.486Z,24.73
2022-10-25T06:59:20.490Z,19.97
2022-10-25T07:01:47.729Z,18.73
2022-10-25T07:04:14.478Z,22.13
2022-10-25T07:06:41.061Z,24.40
2022-10-25T07:09:09.329Z,21.53
2022-10-25T07:11:35.815Z,29.60
2022-10-25T07:14:04.265Z,22.57
2022-10-25T07:16:31.137Z,24.17
2022-10-25T07:19:01.669Z,25.73
2022-10-25T07:21:29.987Z,22.83
2022-10-25T07:23:56.497Z,21.60
2022-10-25T07:26:24.315Z,18.90
2022-10-25T07:28:51.908Z,21.27
2022-10-25T07:31:22.053Z,19.07
2022-10-25T07:33:49.638Z,16.17
2022-10-25T07:36:16.355Z,25.97
2022-10-25T07:38:42.772Z,17.17
2022-10-25T07:41:09.800Z,24.43
2022-10-25T07:43:36.552Z,17.33
2022-10-25T07:46:03.740Z,22.77
2022-10-25T07:48:30.307Z,24.93
2022-10-25T07:50:56.737Z,19.90
2022-10-25T07:53:23.308Z,22.17
2022-10-25T07:55:51.723Z,20.27
2022-10-25T07:58:18.953Z,20.10
2022-10-25T08:00:45.392Z,22.87
2022-10-25T08:03:12.762Z,27.83
2022-10-25T08:05:40.009Z,23.37
2022-10-25T08:08:06.476Z,22.53
2022-10-25T08:10:32.892Z,21.67
2022-10-25T08:12:59.364Z,23.93
2022-10-25T08:15:25.803Z,23.20
2022-10-25T08:18:02.597Z,19.20
2022-10-25T08:20:49.666Z,21.63
2022-10-25T08:23:16.083Z,20.43
2022-10-25T08:25:42.762Z,22.57
2022-10-25T08:28:09.232Z,20.17
2022-10-25T08:30:35.736Z,20.83
2022-10-25T08:33:02.166Z,13.17
2022-10-25T08:35:28.699Z,20.13
2022-10-25T08:37:55.210Z,17.30
2022-10-25T08:40:25.200Z,21.47
2022-10-25T08:43:04.629Z,19.03
2022-10-25T08:45:54.973Z,22.53
2022-10-25T08:48:31.698Z,20.23
2022-10-25T08:51:04.921Z,16.20
2022-10-25T08:53:36.021Z,22.97
2022-10-25T08:56:16.064Z,24.00
2022-10-25T08:58:47.955Z,18.77
2022-10-25T09:01:22.823Z,21.80
2022-10-25T09:03:49.420Z,27.00
2022-10-25T09:06:21.788Z,15.63
2022-10-25T09:08:54.112Z,20.67
2022-10-25T09:11:36.705Z,22.03
2022-10-25T09:14:03.403Z,23.47
2022-10-25T09:16:35.880Z,18.27
2022-10-25T09:19:04.029Z,19.77
2022-10-25T09:21:42.491Z,22.93
2022-10-25T09:24:20.801Z,21.47
2022-10-25T09:27:26.543Z,17.23
2022-10-25T09:30:10.234Z,16.23
2022-10-25T09:32:48.368Z,24.97
2022-10-25T09:35:24.635Z,20.33
2022-10-25T09:38:01.487Z,17.77
2022-10-25T09:40:39.242Z,15.97
2022-10-25T09:43:17.170Z,16.57
2022-10-25T09:45:56.132Z,17.73
2022-10-25T09:48:29.302Z,19.37
2022-10-25T09:51:01.776Z,11.17
2022-10-25T09:53:28.921Z,10.23
2022-10-25T09:55:57.665Z,13.83
2022-10-25T09:58:26.310Z,18.70
2022-10-25T10:00:54.883Z,15.03
2022-10-25T10:03:22.770Z,18.00
2022-10-25T10:05:55.726Z,9.47
2022-10-25T10:08:22.732Z,17.30
2022-10-25T10:10:50.400Z,11.00
2022-10-25T10:13:29.108Z,13.23
2022-10-25T10:15:58.503Z,14.23
2022-10-25T10:18:31.899Z,13.70
2022-10-25T10:21:13.963Z,10.00
2022-10-25T10:23:53.532Z,14.37
2022-10-25T10:26:27.224Z,11.80
2022-10-25T10:29:16.648Z,17.10
2022-10-25T10:31:47.284Z,11.43
2022-10-25T10:34:35.038Z,13.43
2022-10-25T10:37:03.073Z,14.23
2022-10-25T10:39:29.573Z,10.47
2022-10-25T10:42:04.443Z,8.17
2022-10-25T10:44:34.523Z,11.10
2022-10-25T10:47:02.602Z,16.30
2022-10-25T10:49:39.237Z,15.60
2022-10-25T10:52:06.075Z,13.97
2022-10-25T10:54:39.137Z,16.73
2022-10-25T10:57:07.033Z,13.17
2022-10-25T10:59:40.352Z,13.23
2022-10-25T11:02:35.223Z,13.30
2022-10-25T11:05:01.776Z,9.70
2022-10-25T11:07:31.067Z,11.07
2022-10-25T11:10:22.051Z,12.53
2022-10-25T11:13:04.757Z,10.83
2022-10-25T11:15:39.114Z,10.63
2022-10-25T11:18:06.238Z,15.80
2022-10-25T11:20:51.126Z,11.07
2022-10-25T11:23:28.552Z,10.80
2022-10-25T11:26:02.533Z,11.80
2022-10-25T11:28:35.000Z,14.43
2022-10-25T11:31:17.075Z,12.13
2022-10-25T11:34:09.854Z,9.83
2022-10-25T11:36:45.904Z,10.17
2022-10-25T11:39:36.159Z,7.87
2022-10-25T11:42:21.635Z,12.40
2022-10-25T11:45:13.205Z,9.37
2022-10-25T11:47:48.714Z,11.17
2022-10-25T11:50:33.394Z,10.37
2022-10-25T11:53:37.512Z,14.37
2022-10-25T11:56:44.144Z,8.47
2022-10-25T11:59:22.449Z,9.70
2022-10-25T12:02:03.319Z,12.20
2022-10-25T12:04:48.515Z,8.40
2022-10-25T12:07:33.735Z,10.87
2022-10-25T12:10:15.096Z,11.03
2022-10-25T12:12:51.108Z,7.70
2022-10-25T12:15:23.681Z,10.57
2022-10-25T12:17:50.899Z,12.97
2022-10-25T12:20:22.022Z,8.33
2022-10-25T12:22:50.730Z,14.43
2022-10-25T12:25:28.181Z,11.10
2022-10-25T12:28:23.005Z,6.80
2022-10-25T12:30:50.936Z,7.17
2022-10-25T12:33:42.668Z,7.37
2022-10-25T12:36:21.861Z,8.00
2022-10-25T12:38:48.284Z,7.90
2022-10-25T12:41:23.737Z,7.40
2022-10-25T12:44:38.235Z,6.27
2022-10-25T12:47:23.315Z,8.73
2022-10-25T12:49:57.276Z,10.07
2022-10-25T12:52:35.475Z,6.27
2022-10-25T12:55:26.878Z,9.40
2022-10-25T12:58:18.121Z,7.60
2022-10-25T13:00:56.520Z,6.07
2022-10-25T13:03:32.603Z,6.13
2022-10-25T13:06:13.195Z,12.67
2022-10-25T13:08:40.504Z,9.73
2022-10-25T13:11:08.315Z,7.83
2022-10-25T13:13:39.095Z,7.33
2022-10-25T13:16:08.675Z,10.07
2022-10-25T13:18:35.029Z,7.50
2022-10-25T13:21:03.434Z,5.97
2022-10-25T13:23:56.109Z,8.20
2022-10-25T13:30:03.285Z,10.23
2022-10-25T13:32:43.481Z,9.10
2022-10-25T13:35:22.480Z,11.27
2022-10-25T13:38:06.038Z,6.23
2022-10-25T13:40:32.685Z,9.03
2022-10-25T13:43:07.554Z,4.07
2022-10-25T13:45:41.361Z,8.00
2022-10-25T13:48:15.921Z,6.73
2022-10-25T13:50:57.040Z,7.27
2022-10-25T13:53:30.248Z,14.87
2022-10-25T13:56:04.610Z,5.13
2022-10-25T13:58:32.272Z,8.97
2022-10-25T14:01:19.093Z,7.33
2022-10-25T14:03:48.445Z,9.40
2022-10-25T14:06:33.119Z,9.70
2022-10-25T14:09:09.737Z,9.17
2022-10-25T14:11:47.283Z,9.60
2022-10-25T14:14:44.447Z,10.10
2022-10-25T14:17:29.753Z,6.67
2022-10-25T14:20:03.723Z,11.27
2022-10-25T14:22:34.830Z,10.80
2022-10-25T14:25:19.741Z,9.57
2022-10-25T14:27:46.202Z,6.43
2022-10-25T14:30:24.950Z,7.83
2022-10-25T14:32:56.116Z,4.67
2022-10-25T14:35:24.929Z,10.23
2022-10-25T14:37:51.445Z,8.93
2022-10-25T14:40:29.493Z,8.17
2022-10-25T14:42:56.799Z,3.97
2022-10-25T14:45:25.484Z,10.50
2022-10-25T14:47:52.544Z,6.70
2022-10-25T14:50:23.786Z,5.07
2022-10-25T14:52:51.528Z,8.60
2022-10-25T14:55:28.840Z,5.90
2022-10-25T14:57:55.391Z,11.53
2022-10-25T15:00:23.084Z,6.37
2022-10-25T15:02:54.584Z,7.17
2022-10-25T15:05:22.648Z,6.10
2022-10-25T15:07:54.441Z,5.03
2022-10-25T15:10:30.166Z,7.40
2022-10-25T15:13:02.842Z,9.47
2022-10-25T15:15:38.430Z,13.17
2022-10-25T15:18:05.108Z,5.83
2022-10-25T15:20:34.458Z,6.93
2022-10-25T15:23:06.277Z,4.87
2022-10-25T15:25:37.070Z,10.33
2022-10-25T15:28:20.496Z,9.27
2022-10-25T15:30:49.917Z,6.70
2022-10-25T15:33:20.430Z,7.20
2022-10-25T15:36:05.760Z,6.53
2022-10-25T15:39:05.432Z,12.17
2022-10-25T15:41:21.966Z,7.37
2022-10-25T15:43:48.418Z,7.03
2022-10-25T15:46:33.161Z,9.10
2022-10-25T15:49:01.597Z,8.13
2022-10-25T15:51:31.004Z,15.80
2022-10-25T15:53:57.830Z,11.17
2022-10-25T15:56:24.297Z,11.27
2022-10-25T15:58:51.263Z,10.10
2022-10-25T16:01:18.304Z,7.67
2022-10-25T16:03:44.965Z,11.10
2022-10-25T16:06:14.492Z,14.23
2022-10-25T16:08:41.965Z,17.43
2022-10-25T16:11:14.501Z,11.20
2022-10-25T16:13:41.925Z,9.50
2022-10-25T16:16:35.229Z,13.67
2022-10-25T16:19:03.658Z,12.57
2022-10-25T16:21:30.286Z,9.60
2022-10-25T16:23:56.735Z,14.63
2022-10-25T16:26:28.423Z,10.23
2022-10-25T16:28:55.056Z,9.80
2022-10-25T16:31:22.595Z,8.83
2022-10-25T16:33:49.015Z,9.17
2022-10-25T16:36:15.548Z,10.17
2022-10-25T16:38:42.012Z,13.67
2022-10-25T16:41:26.709Z,7.67
2022-10-25T16:43:53.137Z,10.37
2022-10-25T16:46:19.576Z,11.20
2022-10-25T16:48:46.307Z,12.87
2022-10-25T16:51:17.137Z,13.20
2022-10-25T16:53:44.727Z,9.20
2022-10-25T16:56:11.527Z,11.67
2022-10-25T16:58:38.616Z,8.37
2022-10-25T17:01:19.733Z,7.13
2022-10-25T17:03:52.839Z,15.00
2022-10-25T17:09:06.662Z,15.10
2022-10-25T17:11:33.078Z,16.83
2022-10-25T17:13:59.478Z,14.03
2022-10-25T17:16:25.925Z,11.23
2022-10-25T17:18:52.423Z,10.83
2022-10-25T17:21:18.947Z,14.23
2022-10-25T17:23:45.510Z,12.77
2022-10-25T17:26:12.058Z,14.77
2022-10-25T17:28:43.020Z,8.77
2022-10-25T17:31:12.605Z,10.33
2022-10-25T17:33:39.183Z,13.23
2022-10-25T17:36:07.840Z,15.37
2022-10-25T17:38:34.321Z,11.93
2022-10-25T17:41:00.892Z,17.23
2022-10-25T17:43:27.348Z,19.30
2022-10-25T17:45:59.556Z,22.30
2022-10-25T17:48:25.987Z,17.47
2022-10-25T17:50:52.414Z,14.37
2022-10-25T17:53:18.837Z,18.03
2022-10-25T17:55:45.265Z,16.30
2022-10-25T17:58:13.007Z,12.60
2022-10-25T18:00:39.446Z,12.23
2022-10-25T18:03:05.845Z,12.13
2022-10-25T18:05:32.262Z,15.60
2022-10-25T18:07:58.670Z,13.17
2022-10-25T18:10:25.743Z,15.27
2022-10-25T18:12:52.146Z,17.37
2022-10-25T18:15:18.633Z,25.50
2022-10-25T18:17:46.932Z,16.80
2022-10-25T18:20:13.938Z,15.23
2022-10-25T18:22:40.660Z,24.07
2022-10-25T18:25:07.852Z,15.10
2022-10-25T18:27:34.365Z,15.43
2022-10-25T18:30:00.842Z,13.37
2022-10-25T18:32:33.580Z,13.67
2022-10-25T18:35:02.767Z,14.07
2022-10-25T18:37:29.846Z,16.87
2022-10-25T18:39:56.243Z,13.80
2022-10-25T18:42:22.715Z,14.43
2022-10-25T18:44:50.476Z,20.83
2022-10-25T18:47:16.914Z,13.63
2022-10-25T18:49:43.386Z,19.03
2022-10-25T18:52:09.948Z,16.23
2022-10-25T18:54:36.381Z,15.60
2022-10-25T18:57:03.103Z,12.97
2022-10-25T18:59:29.527Z,12.63
2022-10-25T19:01:56.456Z,15.07
2022-10-25T19:08:11.719Z,20.47
2022-10-25T19:10:40.047Z,16.50
2022-10-25T19:13:07.116Z,18.83
2022-10-25T19:15:33.714Z,16.07
2022-10-25T19:18:37.570Z,13.97
2022-10-25T19:21:06.679Z,14.70
2022-10-25T19:23:33.255Z,14.40
2022-10-25T19:26:07.695Z,15.53
2022-10-25T19:28:34.873Z,13.83
2022-10-25T19:31:09.368Z,17.47
2022-10-25T19:33:35.983Z,16.30
2022-10-25T19:36:11.934Z,13.17
2022-10-25T19:38:38.769Z,14.80
2022-10-25T19:41:07.661Z,13.27
2022-10-25T19:43:34.064Z,11.90
2022-10-25T19:46:02.288Z,14.40
2022-10-25T19:48:28.826Z,14.03
2022-10-25T19:50:55.581Z,15.20
2022-10-25T19:53:22.199Z,12.80
2022-10-25T19:56:02.287Z,13.40
2022-10-25T19:58:29.033Z,11.63
2022-10-25T20:01:10.469Z,15.77
2022-10-25T20:03:38.032Z,10.87
2022-10-25T20:06:07.997Z,11.87
2022-10-25T20:08:35.897Z,14.20
2022-10-25T20:11:02.686Z,16.13
2022-10-25T20:13:29.102Z,19.30
2022-10-25T20:15:56.852Z,18.07
2022-10-25T20:18:25.439Z,14.60
2022-10-25T20:20:57.484Z,13.37
2022-10-25T20:23:23.965Z,14.23
2022-10-25T20:25:50.396Z,14.23
2022-10-25T20:28:16.862Z,13.90
2022-10-25T20:30:43.311Z,18.07
2022-10-25T20:33:09.926Z,12.97
2022-10-25T20:35:41.125Z,16.17
2022-10-25T20:38:08.347Z,16.57
2022-10-25T20:40:34.977Z,14.43
2022-10-25T20:43:01.607Z,12.93
2022-10-25T20:45:28.889Z,15.93
2022-10-25T20:47:56.249Z,16.03
2022-10-25T20:50:23.193Z,16.23
2022-10-25T20:53:09.255Z,16.00
2022-10-25T20:55:36.208Z,16.13
2022-10-25T20:58:02.615Z,17.87
2022-10-25T21:00:29.021Z,17.10
2022-10-25T21:02:55.441Z,16.40
2022-10-25T21:05:21.867Z,13.93
2022-10-25T21:07:48.531Z,19.20
2022-10-25T21:10:15.267Z,14.13
2022-10-25T21:12:41.677Z,17.27
2022-10-25T21:15:11.863Z,15.63
2022-10-25T21:17:38.849Z,17.67
2022-10-25T21:20:05.818Z,15.33
2022-10-25T21:22:32.248Z,17.03
2022-10-25T21:24:58.679Z,17.40
2022-10-25T21:27:25.273Z,15.50
2022-10-25T21:29:51.709Z,14.80
2022-10-25T21:32:18.135Z,19.10
2022-10-25T21:34:44.607Z,14.13
2022-10-25T21:37:11.004Z,13.13
2022-10-25T21:39:37.573Z,13.83
2022-10-25T21:42:04.134Z,15.43
2022-10-25T21:44:30.530Z,17.00
2022-10-25T21:46:56.960Z,18.63
2022-10-25T21:49:23.444Z,14.10
2022-10-25T21:51:49.885Z,12.67
2022-10-25T21:54:16.335Z,11.53
2022-10-25T21:56:42.745Z,17.63
2022-10-25T21:59:09.220Z,16.80
2022-10-25T22:01:35.766Z,14.13
2022-10-25T22:04:02.258Z,18.63
2022-10-25T22:06:29.107Z,13.33
2022-10-25T22:08:55.971Z,12.57
2022-10-25T22:11:25.114Z,13.63
2022-10-25T22:13:56.551Z,13.23
2022-10-25T22:16:23.546Z,14.63
2022-10-25T22:18:53.669Z,12.20
2022-10-25T22:21:21.171Z,12.87
2022-10-25T22:23:47.647Z,15.33
2022-10-25T22:26:16.215Z,15.80
2022-10-25T22:28:42.673Z,16.80
2022-10-25T22:31:14.535Z,13.83
2022-10-25T22:33:41.491Z,14.30
2022-10-25T22:36:09.640Z,14.10
2022-10-25T22:38:36.315Z,15.33
2022-10-25T22:41:05.474Z,11.50
2022-10-25T22:43:34.094Z,13.50
2022-10-25T22:46:01.373Z,16.17
2022-10-25T22:48:31.903Z,13.73
2022-10-25T22:50:58.337Z,14.03
2022-10-25T22:53:24.906Z,15.70
2022-10-25T22:56:27.515Z,13.27
2022-10-25T22:58:59.858Z,12.93
2022-10-25T23:01:28.672Z,14.17
2022-10-25T23:03:56.346Z,17.20
2022-10-25T23:06:24.926Z,13.10
2022-10-25T23:08:55.874Z,23.47
2022-10-25T23:11:27.861Z,18.43
2022-10-25T23:13:54.402Z,22.10
2022-10-25T23:16:21.027Z,20.63
2022-10-25T23:18:47.473Z,19.00
2022-10-25T23:21:19.752Z,15.87
2022-10-25T23:23:46.917Z,15.53
2022-10-25T23:26:17.483Z,12.03
2022-10-25T23:28:44.044Z,13.87
2022-10-25T23:31:11.633Z,18.13
2022-10-25T23:33:38.588Z,16.13
2022-10-25T23:36:09.397Z,14.40
2022-10-25T23:38:36.676Z,22.20
2022-10-25T23:41:03.892Z,20.23
2022-10-25T23:43:30.612Z,17.77
2022-10-25T23:45:57.058Z,19.60
2022-10-25T23:48:23.696Z,14.63
2022-10-25T23:51:17.036Z,18.97
2022-10-25T23:53:43.647Z,13.50
2022-10-25T23:56:11.662Z,15.13
2022-10-25T23:58:38.384Z,20.20
